sensor_id;sensor_type;location;lat;lon;timestamp;P1;durP1;ratioP1;P2;durP2;ratioP2
10114;SDS011;5097;43.260;27.812;2022-07-06T00:01:23;2.25;;;2.08;;
10114;SDS011;5097;43.260;27.812;2022-07-06T00:03:48;4.50;;;2.47;;
10114;SDS011;5097;43.260;27.812;2022-07-06T00:06:18;4.32;;;2.10;;
10114;SDS011;5097;43.260;27.812;2022-07-06T00:08:42;2.85;;;1.88;;
10114;SDS011;5097;43.260;27.812;2022-07-06T00:11:06;1.98;;;1.83;;
10114;SDS011;5097;43.260;27.812;2022-07-06T00:13:30;2.40;;;2.20;;
10114;SDS011;5097;43.260;27.812;2022-07-06T00:15:55;2.70;;;1.95;;
10114;SDS011;5097;43.260;27.812;2022-07-06T00:18:19;4.05;;;2.42;;
10114;SDS011;5097;43.260;27.812;2022-07-06T00:20:44;3.33;;;2.10;;
10114;SDS011;5097;43.260;27.812;2022-07-06T00:23:10;2.17;;;2.08;;
10114;SDS011;5097;43.260;27.812;2022-07-06T00:25:34;1.90;;;1.80;;
10114;SDS011;5097;43.260;27.812;2022-07-06T00:27:58;2.03;;;1.90;;
10114;SDS011;5097;43.260;27.812;2022-07-06T00:30:22;2.47;;;1.77;;
10114;SDS011;5097;43.260;27.812;2022-07-06T00:32:46;1.73;;;1.60;;
10114;SDS011;5097;43.260;27.812;2022-07-06T00:35:10;2.43;;;1.90;;
10114;SDS011;5097;43.260;27.812;2022-07-06T00:37:35;2.73;;;1.60;;
10114;SDS011;5097;43.260;27.812;2022-07-06T00:40:01;1.67;;;1.57;;
10114;SDS011;5097;43.260;27.812;2022-07-06T00:42:25;2.58;;;1.63;;
10114;SDS011;5097;43.260;27.812;2022-07-06T00:44:49;2.35;;;1.67;;
10114;SDS011;5097;43.260;27.812;2022-07-06T00:47:14;2.13;;;2.00;;
10114;SDS011;5097;43.260;27.812;2022-07-06T00:49:38;4.47;;;2.20;;
10114;SDS011;5097;43.260;27.812;2022-07-06T00:52:20;4.27;;;2.00;;
10114;SDS011;5097;43.260;27.812;2022-07-06T00:54:44;2.00;;;1.70;;
10114;SDS011;5097;43.260;27.812;2022-07-06T00:57:11;2.23;;;1.73;;
10114;SDS011;5097;43.260;27.812;2022-07-06T00:59:36;2.35;;;2.15;;
10114;SDS011;5097;43.260;27.812;2022-07-06T01:02:00;1.80;;;1.70;;
10114;SDS011;5097;43.260;27.812;2022-07-06T01:04:24;2.22;;;1.92;;
10114;SDS011;5097;43.260;27.812;2022-07-06T01:06:49;3.45;;;2.10;;
10114;SDS011;5097;43.260;27.812;2022-07-06T01:09:13;1.77;;;1.67;;
10114;SDS011;5097;43.260;27.812;2022-07-06T01:11:38;3.75;;;2.13;;
10114;SDS011;5097;43.260;27.812;2022-07-06T01:14:04;3.40;;;1.80;;
10114;SDS011;5097;43.260;27.812;2022-07-06T01:16:28;1.93;;;1.83;;
10114;SDS011;5097;43.260;27.812;2022-07-06T01:18:54;2.37;;;1.90;;
10114;SDS011;5097;43.260;27.812;2022-07-06T01:21:19;2.53;;;2.03;;
10114;SDS011;5097;43.260;27.812;2022-07-06T01:23:44;1.92;;;1.73;;
10114;SDS011;5097;43.260;27.812;2022-07-06T01:26:10;3.90;;;2.38;;
10114;SDS011;5097;43.260;27.812;2022-07-06T01:28:37;2.03;;;1.83;;
10114;SDS011;5097;43.260;27.812;2022-07-06T01:31:01;2.23;;;2.03;;
10114;SDS011;5097;43.260;27.812;2022-07-06T01:33:25;2.25;;;2.03;;
10114;SDS011;5097;43.260;27.812;2022-07-06T01:35:50;2.10;;;2.00;;
10114;SDS011;5097;43.260;27.812;2022-07-06T01:38:15;1.98;;;1.77;;
10114;SDS011;5097;43.260;27.812;2022-07-06T01:40:39;2.88;;;1.83;;
10114;SDS011;5097;43.260;27.812;2022-07-06T01:43:04;2.10;;;2.00;;
10114;SDS011;5097;43.260;27.812;2022-07-06T01:45:30;1.92;;;1.80;;
10114;SDS011;5097;43.260;27.812;2022-07-06T01:47:56;2.80;;;1.98;;
10114;SDS011;5097;43.260;27.812;2022-07-06T01:50:20;2.72;;;2.22;;
10114;SDS011;5097;43.260;27.812;2022-07-06T01:52:45;2.42;;;1.52;;
10114;SDS011;5097;43.260;27.812;2022-07-06T01:55:11;3.42;;;2.13;;
10114;SDS011;5097;43.260;27.812;2022-07-06T01:57:35;6.05;;;2.47;;
10114;SDS011;5097;43.260;27.812;2022-07-06T01:59:59;5.05;;;2.10;;
10114;SDS011;5097;43.260;27.812;2022-07-06T02:02:33;2.90;;;2.55;;
10114;SDS011;5097;43.260;27.812;2022-07-06T02:04:59;2.05;;;1.85;;
10114;SDS011;5097;43.260;27.812;2022-07-06T02:07:24;2.47;;;2.25;;
10114;SDS011;5097;43.260;27.812;2022-07-06T02:09:48;2.30;;;2.10;;
10114;SDS011;5097;43.260;27.812;2022-07-06T02:12:13;3.03;;;2.05;;
10114;SDS011;5097;43.260;27.812;2022-07-06T02:14:37;2.28;;;2.08;;
10114;SDS011;5097;43.260;27.812;2022-07-06T02:17:02;3.28;;;2.35;;
10114;SDS011;5097;43.260;27.812;2022-07-06T02:19:29;4.00;;;2.13;;
10114;SDS011;5097;43.260;27.812;2022-07-06T02:21:53;2.38;;;2.20;;
10114;SDS011;5097;43.260;27.812;2022-07-06T02:24:17;2.90;;;2.10;;
10114;SDS011;5097;43.260;27.812;2022-07-06T02:26:41;2.65;;;2.15;;
10114;SDS011;5097;43.260;27.812;2022-07-06T02:29:07;2.38;;;2.17;;
10114;SDS011;5097;43.260;27.812;2022-07-06T02:31:31;2.30;;;2.20;;
10114;SDS011;5097;43.260;27.812;2022-07-06T02:33:56;2.63;;;2.40;;
10114;SDS011;5097;43.260;27.812;2022-07-06T02:36:20;3.22;;;2.20;;
10114;SDS011;5097;43.260;27.812;2022-07-06T02:38:44;3.17;;;1.98;;
10114;SDS011;5097;43.260;27.812;2022-07-06T02:41:09;3.42;;;2.40;;
10114;SDS011;5097;43.260;27.812;2022-07-06T02:43:33;2.80;;;2.58;;
10114;SDS011;5097;43.260;27.812;2022-07-06T02:45:59;2.50;;;2.30;;
10114;SDS011;5097;43.260;27.812;2022-07-06T02:48:24;2.83;;;2.63;;
10114;SDS011;5097;43.260;27.812;2022-07-06T02:50:49;3.70;;;2.38;;
10114;SDS011;5097;43.260;27.812;2022-07-06T02:53:13;3.47;;;2.60;;
10114;SDS011;5097;43.260;27.812;2022-07-06T02:55:37;2.92;;;2.72;;
10114;SDS011;5097;43.260;27.812;2022-07-06T02:58:02;3.17;;;2.75;;
10114;SDS011;5097;43.260;27.812;2022-07-06T03:00:26;3.30;;;3.00;;
10114;SDS011;5097;43.260;27.812;2022-07-06T03:02:52;5.68;;;3.28;;
10114;SDS011;5097;43.260;27.812;2022-07-06T03:05:17;3.30;;;3.00;;
10114;SDS011;5097;43.260;27.812;2022-07-06T03:07:42;6.15;;;3.38;;
10114;SDS011;5097;43.260;27.812;2022-07-06T03:10:06;6.00;;;4.57;;
10114;SDS011;5097;43.260;27.812;2022-07-06T03:12:32;4.75;;;3.80;;
10114;SDS011;5097;43.260;27.812;2022-07-06T03:14:56;4.43;;;4.03;;
10114;SDS011;5097;43.260;27.812;2022-07-06T03:17:22;9.25;;;3.92;;
10114;SDS011;5097;43.260;27.812;2022-07-06T03:19:49;11.38;;;3.90;;
10114;SDS011;5097;43.260;27.812;2022-07-06T03:22:15;8.13;;;3.85;;
10114;SDS011;5097;43.260;27.812;2022-07-06T03:24:39;5.70;;;3.28;;
10114;SDS011;5097;43.260;27.812;2022-07-06T03:27:05;3.15;;;2.95;;
10114;SDS011;5097;43.260;27.812;2022-07-06T03:29:30;3.35;;;2.90;;
10114;SDS011;5097;43.260;27.812;2022-07-06T03:31:55;3.47;;;3.13;;
10114;SDS011;5097;43.260;27.812;2022-07-06T03:34:20;5.60;;;3.35;;
10114;SDS011;5097;43.260;27.812;2022-07-06T03:36:46;3.42;;;3.13;;
10114;SDS011;5097;43.260;27.812;2022-07-06T03:39:11;3.65;;;3.10;;
10114;SDS011;5097;43.260;27.812;2022-07-06T03:41:37;4.63;;;3.45;;
10114;SDS011;5097;43.260;27.812;2022-07-06T03:44:04;11.45;;;3.67;;
10114;SDS011;5097;43.260;27.812;2022-07-06T03:46:28;4.22;;;3.80;;
10114;SDS011;5097;43.260;27.812;2022-07-06T03:48:54;4.13;;;3.47;;
10114;SDS011;5097;43.260;27.812;2022-07-06T03:51:19;3.08;;;2.80;;
10114;SDS011;5097;43.260;27.812;2022-07-06T03:53:45;3.97;;;2.60;;
10114;SDS011;5097;43.260;27.812;2022-07-06T03:56:10;3.33;;;2.97;;
10114;SDS011;5097;43.260;27.812;2022-07-06T03:59:08;3.50;;;3.10;;
10114;SDS011;5097;43.260;27.812;2022-07-06T04:01:33;3.50;;;3.20;;
10114;SDS011;5097;43.260;27.812;2022-07-06T04:03:58;4.90;;;3.47;;
10114;SDS011;5097;43.260;27.812;2022-07-06T04:06:24;4.20;;;3.00;;
10114;SDS011;5097;43.260;27.812;2022-07-06T04:08:50;4.75;;;3.35;;
10114;SDS011;5097;43.260;27.812;2022-07-06T04:11:15;4.55;;;4.07;;
10114;SDS011;5097;43.260;27.812;2022-07-06T04:13:39;4.47;;;4.05;;
10114;SDS011;5097;43.260;27.812;2022-07-06T04:16:05;4.55;;;3.80;;
10114;SDS011;5097;43.260;27.812;2022-07-06T04:18:30;5.90;;;4.25;;
10114;SDS011;5097;43.260;27.812;2022-07-06T04:20:54;6.18;;;4.35;;
10114;SDS011;5097;43.260;27.812;2022-07-06T04:23:21;4.07;;;3.78;;
10114;SDS011;5097;43.260;27.812;2022-07-06T04:25:48;3.95;;;3.63;;
10114;SDS011;5097;43.260;27.812;2022-07-06T04:28:13;3.42;;;3.13;;
10114;SDS011;5097;43.260;27.812;2022-07-06T04:30:37;4.88;;;3.65;;
10114;SDS011;5097;43.260;27.812;2022-07-06T04:33:06;7.43;;;4.25;;
10114;SDS011;5097;43.260;27.812;2022-07-06T04:35:31;3.80;;;3.42;;
10114;SDS011;5097;43.260;27.812;2022-07-06T04:37:55;5.75;;;3.75;;
10114;SDS011;5097;43.260;27.812;2022-07-06T04:40:21;4.05;;;3.35;;
10114;SDS011;5097;43.260;27.812;2022-07-06T04:42:51;5.30;;;3.65;;
10114;SDS011;5097;43.260;27.812;2022-07-06T04:45:17;4.53;;;4.13;;
10114;SDS011;5097;43.260;27.812;2022-07-06T04:47:42;4.55;;;4.15;;
10114;SDS011;5097;43.260;27.812;2022-07-06T04:50:09;7.47;;;4.47;;
10114;SDS011;5097;43.260;27.812;2022-07-06T04:52:34;4.88;;;4.47;;
10114;SDS011;5097;43.260;27.812;2022-07-06T04:54:59;4.95;;;4.13;;
10114;SDS011;5097;43.260;27.812;2022-07-06T04:57:24;4.75;;;3.90;;
10114;SDS011;5097;43.260;27.812;2022-07-06T04:59:55;6.93;;;4.32;;
10114;SDS011;5097;43.260;27.812;2022-07-06T05:02:19;9.57;;;5.07;;
10114;SDS011;5097;43.260;27.812;2022-07-06T05:04:44;10.32;;;5.88;;
10114;SDS011;5097;43.260;27.812;2022-07-06T05:07:08;6.10;;;5.35;;
10114;SDS011;5097;43.260;27.812;2022-07-06T05:09:32;9.27;;;6.78;;
10114;SDS011;5097;43.260;27.812;2022-07-06T05:11:58;6.93;;;6.15;;
10114;SDS011;5097;43.260;27.812;2022-07-06T05:14:23;7.50;;;6.03;;
10114;SDS011;5097;43.260;27.812;2022-07-06T05:16:50;7.38;;;5.72;;
10114;SDS011;5097;43.260;27.812;2022-07-06T05:19:15;9.52;;;6.30;;
10114;SDS011;5097;43.260;27.812;2022-07-06T05:21:40;8.80;;;5.75;;
10114;SDS011;5097;43.260;27.812;2022-07-06T05:24:04;7.50;;;5.80;;
10114;SDS011;5097;43.260;27.812;2022-07-06T05:26:29;7.70;;;6.00;;
10114;SDS011;5097;43.260;27.812;2022-07-06T05:28:53;10.45;;;6.63;;
10114;SDS011;5097;43.260;27.812;2022-07-06T05:31:18;11.48;;;6.25;;
10114;SDS011;5097;43.260;27.812;2022-07-06T05:33:44;7.50;;;5.65;;
10114;SDS011;5097;43.260;27.812;2022-07-06T05:36:08;5.82;;;5.22;;
10114;SDS011;5097;43.260;27.812;2022-07-06T05:38:33;6.32;;;5.68;;
10114;SDS011;5097;43.260;27.812;2022-07-06T05:40:58;5.75;;;5.13;;
10114;SDS011;5097;43.260;27.812;2022-07-06T05:43:22;6.68;;;5.35;;
10114;SDS011;5097;43.260;27.812;2022-07-06T05:45:48;5.38;;;4.88;;
10114;SDS011;5097;43.260;27.812;2022-07-06T05:48:16;7.05;;;5.90;;
10114;SDS011;5097;43.260;27.812;2022-07-06T05:50:59;12.65;;;7.80;;
10114;SDS011;5097;43.260;27.812;2022-07-06T05:53:24;11.80;;;8.85;;
10114;SDS011;5097;43.260;27.812;2022-07-06T05:55:51;10.48;;;8.82;;
10114;SDS011;5097;43.260;27.812;2022-07-06T05:58:16;13.13;;;9.85;;
10114;SDS011;5097;43.260;27.812;2022-07-06T06:00:41;12.40;;;11.13;;
10114;SDS011;5097;43.260;27.812;2022-07-06T06:03:10;16.75;;;11.02;;
10114;SDS011;5097;43.260;27.812;2022-07-06T06:05:36;14.48;;;11.90;;
10114;SDS011;5097;43.260;27.812;2022-07-06T06:08:05;19.27;;;12.07;;
10114;SDS011;5097;43.260;27.812;2022-07-06T06:10:29;14.65;;;12.05;;
10114;SDS011;5097;43.260;27.812;2022-07-06T06:12:57;17.35;;;13.13;;
10114;SDS011;5097;43.260;27.812;2022-07-06T06:15:22;16.75;;;14.65;;
10114;SDS011;5097;43.260;27.812;2022-07-06T06:17:46;13.77;;;12.10;;
10114;SDS011;5097;43.260;27.812;2022-07-06T06:20:10;15.95;;;14.00;;
10114;SDS011;5097;43.260;27.812;2022-07-06T06:22:46;14.00;;;12.55;;
10114;SDS011;5097;43.260;27.812;2022-07-06T06:25:12;14.38;;;12.88;;
10114;SDS011;5097;43.260;27.812;2022-07-06T06:27:36;18.73;;;13.55;;
10114;SDS011;5097;43.260;27.812;2022-07-06T06:30:00;18.70;;;12.80;;
10114;SDS011;5097;43.260;27.812;2022-07-06T06:32:25;15.18;;;11.13;;
10114;SDS011;5097;43.260;27.812;2022-07-06T06:34:49;13.57;;;10.00;;
10114;SDS011;5097;43.260;27.812;2022-07-06T06:37:13;13.07;;;11.77;;
10114;SDS011;5097;43.260;27.812;2022-07-06T06:39:37;13.40;;;10.02;;
10114;SDS011;5097;43.260;27.812;2022-07-06T06:42:03;11.82;;;10.65;;
10114;SDS011;5097;43.260;27.812;2022-07-06T06:44:29;14.93;;;11.18;;
10114;SDS011;5097;43.260;27.812;2022-07-06T06:46:53;11.63;;;10.30;;
10114;SDS011;5097;43.260;27.812;2022-07-06T06:49:17;12.00;;;10.23;;
10114;SDS011;5097;43.260;27.812;2022-07-06T06:51:42;12.65;;;10.35;;
10114;SDS011;5097;43.260;27.812;2022-07-06T06:54:06;10.77;;;8.82;;
10114;SDS011;5097;43.260;27.812;2022-07-06T06:56:30;12.32;;;10.20;;
10114;SDS011;5097;43.260;27.812;2022-07-06T06:58:55;11.18;;;9.88;;
10114;SDS011;5097;43.260;27.812;2022-07-06T07:01:39;9.85;;;7.85;;
10114;SDS011;5097;43.260;27.812;2022-07-06T07:04:03;6.82;;;5.88;;
10114;SDS011;5097;43.260;27.812;2022-07-06T07:06:28;9.40;;;5.15;;
10114;SDS011;5097;43.260;27.812;2022-07-06T07:08:53;8.20;;;5.45;;
10114;SDS011;5097;43.260;27.812;2022-07-06T07:11:18;6.28;;;5.20;;
10114;SDS011;5097;43.260;27.812;2022-07-06T07:13:42;5.35;;;4.88;;
10114;SDS011;5097;43.260;27.812;2022-07-06T07:16:08;5.25;;;4.70;;
10114;SDS011;5097;43.260;27.812;2022-07-06T07:18:32;8.57;;;4.28;;
10114;SDS011;5097;43.260;27.812;2022-07-06T07:20:57;5.35;;;4.13;;
10114;SDS011;5097;43.260;27.812;2022-07-06T07:23:21;6.50;;;4.30;;
10114;SDS011;5097;43.260;27.812;2022-07-06T07:25:45;10.10;;;3.90;;
10114;SDS011;5097;43.260;27.812;2022-07-06T07:28:09;4.00;;;3.67;;
10114;SDS011;5097;43.260;27.812;2022-07-06T07:30:34;6.03;;;3.53;;
10114;SDS011;5097;43.260;27.812;2022-07-06T07:32:59;3.38;;;3.05;;
10114;SDS011;5097;43.260;27.812;2022-07-06T07:35:23;4.35;;;3.55;;
10114;SDS011;5097;43.260;27.812;2022-07-06T07:37:47;3.83;;;3.40;;
10114;SDS011;5097;43.260;27.812;2022-07-06T07:40:12;5.80;;;3.60;;
10114;SDS011;5097;43.260;27.812;2022-07-06T07:42:36;3.88;;;3.58;;
10114;SDS011;5097;43.260;27.812;2022-07-06T07:45:03;7.82;;;3.85;;
10114;SDS011;5097;43.260;27.812;2022-07-06T07:47:28;5.15;;;4.47;;
10114;SDS011;5097;43.260;27.812;2022-07-06T07:49:55;6.28;;;3.95;;
10114;SDS011;5097;43.260;27.812;2022-07-06T07:52:19;4.20;;;3.72;;
10114;SDS011;5097;43.260;27.812;2022-07-06T07:54:43;4.40;;;3.90;;
10114;SDS011;5097;43.260;27.812;2022-07-06T07:57:19;10.35;;;4.82;;
10114;SDS011;5097;43.260;27.812;2022-07-06T07:59:43;5.15;;;4.70;;
10114;SDS011;5097;43.260;27.812;2022-07-06T08:02:07;5.20;;;3.97;;
10114;SDS011;5097;43.260;27.812;2022-07-06T08:04:31;6.13;;;4.43;;
10114;SDS011;5097;43.260;27.812;2022-07-06T08:06:57;5.65;;;4.10;;
10114;SDS011;5097;43.260;27.812;2022-07-06T08:09:23;5.40;;;4.88;;
10114;SDS011;5097;43.260;27.812;2022-07-06T08:11:48;5.80;;;5.18;;
10114;SDS011;5097;43.260;27.812;2022-07-06T08:14:12;8.10;;;4.50;;
10114;SDS011;5097;43.260;27.812;2022-07-06T08:16:37;5.18;;;4.45;;
10114;SDS011;5097;43.260;27.812;2022-07-06T08:19:02;6.30;;;4.72;;
10114;SDS011;5097;43.260;27.812;2022-07-06T08:21:32;5.72;;;5.13;;
10114;SDS011;5097;43.260;27.812;2022-07-06T08:23:57;5.05;;;4.55;;
10114;SDS011;5097;43.260;27.812;2022-07-06T08:26:23;4.85;;;4.45;;
10114;SDS011;5097;43.260;27.812;2022-07-06T08:28:47;6.63;;;5.10;;
10114;SDS011;5097;43.260;27.812;2022-07-06T08:31:11;4.97;;;4.47;;
10114;SDS011;5097;43.260;27.812;2022-07-06T08:33:55;4.65;;;4.25;;
10114;SDS011;5097;43.260;27.812;2022-07-06T08:36:20;4.75;;;4.35;;
10114;SDS011;5097;43.260;27.812;2022-07-06T08:38:44;4.93;;;4.28;;
10114;SDS011;5097;43.260;27.812;2022-07-06T08:41:09;6.65;;;4.53;;
10114;SDS011;5097;43.260;27.812;2022-07-06T08:43:34;4.78;;;4.38;;
10114;SDS011;5097;43.260;27.812;2022-07-06T08:45:59;4.55;;;4.07;;
10114;SDS011;5097;43.260;27.812;2022-07-06T08:48:24;3.92;;;3.63;;
10114;SDS011;5097;43.260;27.812;2022-07-06T08:50:51;5.15;;;4.63;;
10114;SDS011;5097;43.260;27.812;2022-07-06T08:53:17;4.70;;;4.30;;
10114;SDS011;5097;43.260;27.812;2022-07-06T08:55:41;4.43;;;4.03;;
10114;SDS011;5097;43.260;27.812;2022-07-06T08:58:07;5.25;;;4.45;;
10114;SDS011;5097;43.260;27.812;2022-07-06T09:00:32;4.82;;;3.53;;
10114;SDS011;5097;43.260;27.812;2022-07-06T09:02:57;4.30;;;3.83;;
10114;SDS011;5097;43.260;27.812;2022-07-06T09:05:22;5.13;;;4.63;;
10114;SDS011;5097;43.260;27.812;2022-07-06T09:07:48;4.47;;;4.07;;
10114;SDS011;5097;43.260;27.812;2022-07-06T09:10:22;8.10;;;4.38;;
10114;SDS011;5097;43.260;27.812;2022-07-06T09:12:47;6.95;;;4.90;;
10114;SDS011;5097;43.260;27.812;2022-07-06T09:15:13;5.18;;;4.65;;
10114;SDS011;5097;43.260;27.812;2022-07-06T09:17:37;4.40;;;4.03;;
10114;SDS011;5097;43.260;27.812;2022-07-06T09:20:03;4.88;;;4.43;;
10114;SDS011;5097;43.260;27.812;2022-07-06T09:22:30;4.60;;;4.00;;
10114;SDS011;5097;43.260;27.812;2022-07-06T09:25:00;9.30;;;4.65;;
10114;SDS011;5097;43.260;27.812;2022-07-06T09:27:26;6.20;;;4.82;;
10114;SDS011;5097;43.260;27.812;2022-07-06T09:29:50;4.40;;;4.00;;
10114;SDS011;5097;43.260;27.812;2022-07-06T09:32:16;4.15;;;3.85;;
10114;SDS011;5097;43.260;27.812;2022-07-06T09:34:44;4.45;;;4.05;;
10114;SDS011;5097;43.260;27.812;2022-07-06T09:37:11;4.07;;;3.67;;
10114;SDS011;5097;43.260;27.812;2022-07-06T09:39:36;3.65;;;3.28;;
10114;SDS011;5097;43.260;27.812;2022-07-06T09:42:01;7.32;;;3.40;;
10114;SDS011;5097;43.260;27.812;2022-07-06T09:44:28;4.10;;;3.10;;
10114;SDS011;5097;43.260;27.812;2022-07-06T09:46:55;6.38;;;3.90;;
10114;SDS011;5097;43.260;27.812;2022-07-06T09:49:21;3.28;;;3.08;;
10114;SDS011;5097;43.260;27.812;2022-07-06T09:51:47;3.85;;;3.55;;
10114;SDS011;5097;43.260;27.812;2022-07-06T09:54:12;3.00;;;2.67;;
10114;SDS011;5097;43.260;27.812;2022-07-06T09:56:38;4.75;;;3.53;;
10114;SDS011;5097;43.260;27.812;2022-07-06T09:59:04;3.38;;;3.08;;
10114;SDS011;5097;43.260;27.812;2022-07-06T10:01:32;3.35;;;3.08;;
10114;SDS011;5097;43.260;27.812;2022-07-06T10:03:57;3.50;;;3.20;;
10114;SDS011;5097;43.260;27.812;2022-07-06T10:06:22;3.50;;;2.95;;
10114;SDS011;5097;43.260;27.812;2022-07-06T10:08:48;3.05;;;2.85;;
10114;SDS011;5097;43.260;27.812;2022-07-06T10:11:13;3.03;;;2.80;;
10114;SDS011;5097;43.260;27.812;2022-07-06T10:13:39;2.90;;;2.70;;
10114;SDS011;5097;43.260;27.812;2022-07-06T10:16:04;3.75;;;3.08;;
10114;SDS011;5097;43.260;27.812;2022-07-06T10:18:29;3.42;;;2.45;;
10114;SDS011;5097;43.260;27.812;2022-07-06T10:20:54;3.42;;;3.05;;
10114;SDS011;5097;43.260;27.812;2022-07-06T10:23:20;5.70;;;3.28;;
10114;SDS011;5097;43.260;27.812;2022-07-06T10:25:45;3.75;;;3.00;;
10114;SDS011;5097;43.260;27.812;2022-07-06T10:28:10;3.97;;;2.72;;
10114;SDS011;5097;43.260;27.812;2022-07-06T10:30:37;3.50;;;2.78;;
10114;SDS011;5097;43.260;27.812;2022-07-06T10:33:02;3.20;;;3.00;;
10114;SDS011;5097;43.260;27.812;2022-07-06T10:35:26;3.40;;;2.72;;
10114;SDS011;5097;43.260;27.812;2022-07-06T10:38:02;3.30;;;3.00;;
10114;SDS011;5097;43.260;27.812;2022-07-06T10:40:32;4.63;;;3.20;;
10114;SDS011;5097;43.260;27.812;2022-07-06T10:43:14;3.08;;;2.88;;
10114;SDS011;5097;43.260;27.812;2022-07-06T10:45:51;3.67;;;2.85;;
10114;SDS011;5097;43.260;27.812;2022-07-06T10:48:16;2.88;;;2.53;;
10114;SDS011;5097;43.260;27.812;2022-07-06T10:50:41;3.33;;;3.08;;
10114;SDS011;5097;43.260;27.812;2022-07-06T10:53:11;6.25;;;3.28;;
10114;SDS011;5097;43.260;27.812;2022-07-06T10:55:38;3.22;;;2.80;;
10114;SDS011;5097;43.260;27.812;2022-07-06T10:58:04;3.17;;;2.83;;
10114;SDS011;5097;43.260;27.812;2022-07-06T11:03:32;7.03;;;2.80;;
10114;SDS011;5097;43.260;27.812;2022-07-06T11:05:58;4.90;;;2.70;;
10114;SDS011;5097;43.260;27.812;2022-07-06T11:08:42;3.10;;;2.78;;
10114;SDS011;5097;43.260;27.812;2022-07-06T11:11:12;3.75;;;3.00;;
10114;SDS011;5097;43.260;27.812;2022-07-06T11:13:43;3.88;;;3.47;;
10114;SDS011;5097;43.260;27.812;2022-07-06T11:16:11;4.00;;;3.17;;
10114;SDS011;5097;43.260;27.812;2022-07-06T11:18:39;3.28;;;2.97;;
10114;SDS011;5097;43.260;27.812;2022-07-06T11:21:19;6.35;;;3.38;;
10114;SDS011;5097;43.260;27.812;2022-07-06T11:23:46;4.13;;;3.30;;
10114;SDS011;5097;43.260;27.812;2022-07-06T11:26:13;4.85;;;3.70;;
10114;SDS011;5097;43.260;27.812;2022-07-06T11:28:37;3.90;;;3.20;;
10114;SDS011;5097;43.260;27.812;2022-07-06T11:31:02;3.30;;;3.00;;
10114;SDS011;5097;43.260;27.812;2022-07-06T11:33:29;3.40;;;3.10;;
10114;SDS011;5097;43.260;27.812;2022-07-06T11:35:54;3.53;;;3.22;;
10114;SDS011;5097;43.260;27.812;2022-07-06T11:38:35;6.43;;;3.10;;
10114;SDS011;5097;43.260;27.812;2022-07-06T11:40:59;5.15;;;3.20;;
10114;SDS011;5097;43.260;27.812;2022-07-06T11:43:25;3.92;;;3.13;;
10114;SDS011;5097;43.260;27.812;2022-07-06T11:45:49;4.75;;;3.00;;
10114;SDS011;5097;43.260;27.812;2022-07-06T11:48:13;3.00;;;2.80;;
10114;SDS011;5097;43.260;27.812;2022-07-06T11:50:38;3.60;;;3.17;;
10114;SDS011;5097;43.260;27.812;2022-07-06T11:53:02;6.68;;;3.28;;
10114;SDS011;5097;43.260;27.812;2022-07-06T11:55:27;3.75;;;2.90;;
10114;SDS011;5097;43.260;27.812;2022-07-06T11:57:52;3.17;;;2.95;;
10114;SDS011;5097;43.260;27.812;2022-07-06T12:00:21;2.90;;;2.70;;
10114;SDS011;5097;43.260;27.812;2022-07-06T12:02:58;4.25;;;3.17;;
10114;SDS011;5097;43.260;27.812;2022-07-06T12:05:28;3.30;;;3.00;;
10114;SDS011;5097;43.260;27.812;2022-07-06T12:08:02;3.00;;;2.80;;
10114;SDS011;5097;43.260;27.812;2022-07-06T12:10:31;2.78;;;2.58;;
10114;SDS011;5097;43.260;27.812;2022-07-06T12:13:01;3.45;;;2.78;;
10114;SDS011;5097;43.260;27.812;2022-07-06T12:15:30;3.80;;;3.08;;
10114;SDS011;5097;43.260;27.812;2022-07-06T12:17:54;3.20;;;2.90;;
10114;SDS011;5097;43.260;27.812;2022-07-06T12:20:18;4.00;;;3.00;;
10114;SDS011;5097;43.260;27.812;2022-07-06T12:22:42;2.65;;;2.55;;
10114;SDS011;5097;43.260;27.812;2022-07-06T12:25:07;3.10;;;2.63;;
10114;SDS011;5097;43.260;27.812;2022-07-06T12:27:33;3.70;;;3.17;;
10114;SDS011;5097;43.260;27.812;2022-07-06T12:30:07;3.30;;;3.10;;
10114;SDS011;5097;43.260;27.812;2022-07-06T12:32:33;2.55;;;2.35;;
10114;SDS011;5097;43.260;27.812;2022-07-06T12:35:03;3.35;;;3.05;;
10114;SDS011;5097;43.260;27.812;2022-07-06T12:37:27;3.35;;;3.15;;
10114;SDS011;5097;43.260;27.812;2022-07-06T12:39:52;3.85;;;2.67;;
10114;SDS011;5097;43.260;27.812;2022-07-06T12:42:16;3.10;;;2.90;;
10114;SDS011;5097;43.260;27.812;2022-07-06T12:44:43;3.28;;;2.70;;
10114;SDS011;5097;43.260;27.812;2022-07-06T12:47:09;2.83;;;2.55;;
10114;SDS011;5097;43.260;27.812;2022-07-06T12:49:35;2.95;;;2.70;;
10114;SDS011;5097;43.260;27.812;2022-07-06T12:52:02;3.10;;;2.80;;
10114;SDS011;5097;43.260;27.812;2022-07-06T12:54:33;3.00;;;2.70;;
10114;SDS011;5097;43.260;27.812;2022-07-06T12:57:00;2.80;;;2.60;;
10114;SDS011;5097;43.260;27.812;2022-07-06T12:59:27;3.40;;;3.05;;
10114;SDS011;5097;43.260;27.812;2022-07-06T13:01:52;3.67;;;2.58;;
10114;SDS011;5097;43.260;27.812;2022-07-06T13:04:19;2.83;;;2.63;;
10114;SDS011;5097;43.260;27.812;2022-07-06T13:06:45;3.10;;;2.80;;
10114;SDS011;5097;43.260;27.812;2022-07-06T13:09:09;4.88;;;2.70;;
10114;SDS011;5097;43.260;27.812;2022-07-06T13:11:35;3.58;;;2.80;;
10114;SDS011;5097;43.260;27.812;2022-07-06T13:14:00;4.47;;;2.42;;
10114;SDS011;5097;43.260;27.812;2022-07-06T13:16:24;3.20;;;2.90;;
10114;SDS011;5097;43.260;27.812;2022-07-06T13:18:54;3.13;;;2.88;;
10114;SDS011;5097;43.260;27.812;2022-07-06T13:21:18;3.40;;;2.75;;
10114;SDS011;5097;43.260;27.812;2022-07-06T13:23:44;4.32;;;2.22;;
10114;SDS011;5097;43.260;27.812;2022-07-06T13:26:08;3.33;;;2.40;;
10114;SDS011;5097;43.260;27.812;2022-07-06T13:28:33;3.15;;;2.65;;
10114;SDS011;5097;43.260;27.812;2022-07-06T13:30:57;3.90;;;2.65;;
10114;SDS011;5097;43.260;27.812;2022-07-06T13:33:21;2.88;;;2.67;;
10114;SDS011;5097;43.260;27.812;2022-07-06T13:35:46;2.83;;;2.20;;
10114;SDS011;5097;43.260;27.812;2022-07-06T13:38:10;2.83;;;2.58;;
10114;SDS011;5097;43.260;27.812;2022-07-06T13:40:38;2.90;;;2.58;;
10114;SDS011;5097;43.260;27.812;2022-07-06T13:43:03;2.15;;;2.05;;
10114;SDS011;5097;43.260;27.812;2022-07-06T13:45:28;5.70;;;2.50;;
10114;SDS011;5097;43.260;27.812;2022-07-06T13:47:52;3.55;;;3.20;;
10114;SDS011;5097;43.260;27.812;2022-07-06T13:50:16;4.35;;;3.90;;
10114;SDS011;5097;43.260;27.812;2022-07-06T13:52:40;3.20;;;2.63;;
10114;SDS011;5097;43.260;27.812;2022-07-06T13:55:05;2.50;;;2.30;;
10114;SDS011;5097;43.260;27.812;2022-07-06T13:57:33;2.70;;;2.50;;
10114;SDS011;5097;43.260;27.812;2022-07-06T13:59:57;3.15;;;2.88;;
10114;SDS011;5097;43.260;27.812;2022-07-06T14:02:22;4.70;;;3.28;;
10114;SDS011;5097;43.260;27.812;2022-07-06T14:04:46;4.72;;;2.97;;
10114;SDS011;5097;43.260;27.812;2022-07-06T14:07:10;3.53;;;3.22;;
10114;SDS011;5097;43.260;27.812;2022-07-06T14:09:41;3.47;;;3.08;;
10114;SDS011;5097;43.260;27.812;2022-07-06T14:12:06;3.60;;;3.20;;
10114;SDS011;5097;43.260;27.812;2022-07-06T14:14:32;10.20;;;8.63;;
10114;SDS011;5097;43.260;27.812;2022-07-06T14:16:57;5.50;;;5.00;;
10114;SDS011;5097;43.260;27.812;2022-07-06T14:19:21;7.40;;;5.43;;
10114;SDS011;5097;43.260;27.812;2022-07-06T14:21:45;3.28;;;3.00;;
10114;SDS011;5097;43.260;27.812;2022-07-06T14:24:11;4.18;;;2.80;;
10114;SDS011;5097;43.260;27.812;2022-07-06T14:26:36;5.47;;;3.22;;
10114;SDS011;5097;43.260;27.812;2022-07-06T14:29:06;5.93;;;4.38;;
10114;SDS011;5097;43.260;27.812;2022-07-06T14:31:37;4.22;;;3.28;;
10114;SDS011;5097;43.260;27.812;2022-07-06T14:34:07;5.70;;;2.78;;
10114;SDS011;5097;43.260;27.812;2022-07-06T14:36:35;6.20;;;2.70;;
10114;SDS011;5097;43.260;27.812;2022-07-06T14:39:00;3.67;;;2.42;;
10114;SDS011;5097;43.260;27.812;2022-07-06T14:41:25;4.00;;;2.85;;